Time;durP1;ratioP1;P1;durP2;ratioP2;P2;SDS_P1;SDS_P2;PMS_P1;PMS_P2;Temp;Humidity;BMP_temperature;BMP_pressure;BME280_temperature;BME280_humidity;BME280_pressure;Samples;Min_cycle;Max_cycle;Signal;HPM_P1;HPM_P2
2021/06/04 00:02:12;;;;;;;15.90;5.10;;;;;;;14.57;60.77;102973.50;6290835;28;20228;-73
2021/06/04 00:05:18;;;;;;;14.02;5.25;;;;;;;14.46;61.33;102983.09;6291224;28;20184;-73
2021/06/04 00:08:24;;;;;;;11.07;4.78;;;;;;;14.54;62.65;102980.22;6290058;28;20185;-73
2021/06/04 00:11:30;;;;;;;14.93;4.57;;;;;;;14.41;63.16;102958.09;6290664;28;20291;-73
2021/06/04 00:14:36;;;;;;;11.00;4.18;;;;;;;14.58;62.97;102981.56;6271708;28;20200;-73
2021/06/04 00:17:43;;;;;;;6.03;4.05;;;;;;;14.08;63.19;102901.84;6289758;28;20413;-73
2021/06/04 00:20:46;;;;;;;7.07;4.57;;;;;;;14.46;62.98;102969.34;6290907;28;20242;-73
2021/06/04 00:23:51;;;;;;;10.30;4.30;;;;;;;14.54;62.58;102979.38;6290671;28;20184;-73
2021/06/04 00:26:55;;;;;;;4.88;4.30;;;;;;;14.53;62.08;102970.31;6290729;28;20220;-73
2021/06/04 00:29:58;;;;;;;8.43;4.57;;;;;;;14.30;61.89;102920.13;6290655;28;20238;-73
2021/06/04 00:33:05;;;;;;;8.68;4.70;;;;;;;14.48;63.29;102975.53;6289393;28;20541;-73
2021/06/04 00:36:10;;;;;;;11.00;4.40;;;;;;;14.38;63.63;102975.78;6289533;28;20184;-73
2021/06/04 00:39:18;;;;;;;6.07;4.28;;;;;;;14.37;63.13;102976.00;6289538;28;20211;-73
2021/06/04 00:42:25;;;;;;;6.97;4.28;;;;;;;14.28;64.10;102966.09;6272119;28;20249;-73
2021/06/04 00:45:32;;;;;;;8.40;4.30;;;;;;;14.34;63.64;102973.63;6290944;28;20184;-73
2021/06/04 00:48:38;;;;;;;12.43;4.93;;;;;;;14.29;63.61;102970.56;6272388;28;20238;-73
2021/06/04 00:51:50;;;;;;;7.05;5.25;;;;;;;14.36;63.32;102955.91;6288478;28;20228;-73
2021/06/04 00:54:57;;;;;;;11.80;5.30;;;;;;;14.42;63.37;102965.28;6288153;28;20510;-73
2021/06/04 00:58:01;;;;;;;12.52;5.28;;;;;;;14.34;63.96;102974.50;6289882;28;20216;-72
2021/06/04 01:01:09;;;;;;;16.63;5.15;;;;;;;14.14;64.72;102975.22;6272102;28;20204;-73
2021/06/04 01:04:17;;;;;;;12.48;4.95;;;;;;;14.15;65.10;102966.78;6285462;23;20522;-71
2021/06/04 01:07:24;;;;;;;5.65;5.20;;;;;;;14.08;64.96;102967.72;6288438;28;20184;-71
2021/06/04 01:10:40;;;;;;;6.20;4.68;;;;;;;14.13;65.08;102970.75;6289255;28;20535;-71
2021/06/04 01:14:02;;;;;;;7.60;4.57;;;;;;;14.24;65.28;102968.41;6271694;28;20206;-71
2021/06/04 01:17:14;;;;;;;6.10;4.60;;;;;;;13.92;65.89;102965.19;6271714;28;20495;-71
2021/06/04 01:20:24;;;;;;;6.82;5.05;;;;;;;13.75;67.08;102964.47;6271527;28;20520;-71
2021/06/04 01:23:48;;;;;;;12.98;4.97;;;;;;;13.70;67.20;102967.78;6271700;28;20204;-71
2021/06/04 01:27:01;;;;;;;7.45;5.10;;;;;;;13.85;66.92;102961.47;6271283;28;20238;-72
2021/06/04 01:30:16;;;;;;;5.50;5.00;;;;;;;13.95;65.86;102964.78;6290373;28;20230;-71
2021/06/04 01:33:27;;;;;;;10.68;4.90;;;;;;;13.94;65.97;102960.34;6271888;28;20204;-71
2021/06/04 01:36:42;;;;;;;10.02;5.53;;;;;;;13.72;66.46;102935.53;6272205;28;20272;-71
2021/06/04 01:39:52;;;;;;;7.38;4.63;;;;;;;13.71;66.57;102947.53;6270708;28;20491;-71
2021/06/04 01:43:02;;;;;;;6.07;4.72;;;;;;;13.79;66.78;102947.44;6271153;28;20223;-71
2021/06/04 01:46:13;;;;;;;6.90;5.35;;;;;;;13.71;66.35;102939.28;6289969;28;20184;-71
2021/06/04 01:49:22;;;;;;;6.03;4.82;;;;;;;13.67;67.15;102940.72;6289846;28;20184;-71
2021/06/04 01:52:32;;;;;;;7.68;5.13;;;;;;;13.57;67.52;102950.25;6289696;28;20189;-72
2021/06/04 01:55:43;;;;;;;14.27;5.47;;;;;;;13.72;67.53;102945.66;6289336;28;20230;-71
2021/06/04 01:58:54;;;;;;;14.07;5.15;;;;;;;13.47;68.67;102942.28;6288239;28;20476;-71
2021/06/04 02:02:00;;;;;;;8.00;5.07;;;;;;;13.53;67.99;102941.53;6270707;28;20223;-71
2021/06/04 02:05:09;;;;;;;8.45;5.03;;;;;;;13.55;68.17;102944.97;6270367;28;20228;-71
2021/06/04 02:08:21;;;;;;;14.25;5.00;;;;;;;13.37;68.03;102919.75;6271209;28;20184;-71
2021/06/04 02:11:30;;;;;;;8.13;5.07;;;;;;;13.56;68.32;102938.41;6288894;28;20185;-74
2021/06/04 02:14:42;;;;;;;5.38;4.85;;;;;;;13.39;69.13;102950.59;6289204;28;20343;-71
2021/06/04 02:17:58;;;;;;;6.85;5.10;;;;;;;13.32;69.80;102938.66;6270077;28;20234;-71
2021/06/04 02:21:14;;;;;;;8.25;5.10;;;;;;;13.54;69.46;102937.75;6270382;28;20451;-71
2021/06/04 02:24:26;;;;;;;9.57;5.57;;;;;;;13.43;69.42;102932.72;6289199;28;20184;-71
2021/06/04 02:27:36;;;;;;;5.15;4.68;;;;;;;13.36;69.57;102934.50;6270538;28;20200;-71
2021/06/04 02:30:46;;;;;;;8.77;5.45;;;;;;;13.47;69.42;102931.31;6269979;28;20388;-71
2021/06/04 02:33:54;;;;;;;6.43;5.82;;;;;;;13.34;70.22;102936.59;6270760;28;20208;-71
2021/06/04 02:37:02;;;;;;;12.93;5.65;;;;;;;13.33;70.90;102940.34;6288339;28;20215;-72
2021/06/04 02:40:13;;;;;;;7.68;5.13;;;;;;;13.30;70.86;102924.25;6271037;28;20200;-71
2021/06/04 02:43:20;;;;;;;6.93;5.38;;;;;;;13.42;70.73;102925.53;6269496;28;20223;-71
2021/06/04 02:46:31;;;;;;;12.25;5.07;;;;;;;13.39;71.08;102934.13;6288343;28;20191;-71
2021/06/04 02:49:35;;;;;;;5.28;4.95;;;;;;;13.37;71.38;102925.25;6269793;28;20374;-71
2021/06/04 02:52:43;;;;;;;11.00;5.18;;;;;;;13.45;71.22;102916.94;6270289;28;20210;-71
2021/06/04 02:56:18;;;;;;;5.68;5.18;;;;;;;13.38;72.30;102915.97;6270004;28;20239;-71
2021/06/04 02:59:26;;;;;;;5.50;5.10;;;;;;;13.32;72.67;102911.25;6254831;28;20238;-71
2021/06/04 03:02:33;;;;;;;5.30;4.90;;;;;;;13.44;71.32;102909.75;6269318;28;20585;-72
2021/06/04 03:05:39;;;;;;;7.38;5.60;;;;;;;13.35;71.02;102910.03;6269090;28;20397;-72
2021/06/04 03:08:45;;;;;;;6.97;5.45;;;;;;;13.39;71.52;102912.19;6288089;28;20185;-72
2021/06/04 03:11:51;;;;;;;7.53;5.10;;;;;;;13.43;71.89;102909.94;6286710;28;20474;-72
2021/06/04 03:14:58;;;;;;;5.85;5.35;;;;;;;13.32;73.00;102916.72;6269065;28;20207;-72
2021/06/04 03:18:12;;;;;;;7.25;5.38;;;;;;;13.35;73.11;102915.50;6286514;28;20190;-72
2021/06/04 03:21:23;;;;;;;5.78;5.20;;;;;;;13.46;72.68;102918.63;6268756;28;20199;-71
2021/06/04 03:24:33;;;;;;;6.05;5.00;;;;;;;13.54;72.29;102914.97;6269968;28;20230;-71
2021/06/04 03:27:38;;;;;;;6.28;4.43;;;;;;;13.55;72.04;102917.53;6269278;28;20211;-72
2021/06/04 03:30:47;;;;;;;8.95;5.45;;;;;;;13.54;72.34;102909.47;6269043;28;20200;-71
2021/06/04 03:33:55;;;;;;;5.30;4.90;;;;;;;13.76;71.89;102914.06;6269435;28;20216;-72
2021/06/04 03:37:03;;;;;;;6.63;5.50;;;;;;;13.67;71.98;102918.78;6268749;28;20199;-71
2021/06/04 03:40:11;;;;;;;7.82;5.20;;;;;;;13.65;72.65;102922.75;6287269;28;20185;-72
2021/06/04 03:43:17;;;;;;;7.03;5.43;;;;;;;13.78;71.47;102912.84;6286742;28;20429;-72
2021/06/04 03:46:23;;;;;;;9.90;5.40;;;;;;;13.75;71.33;102918.69;6269652;28;20207;-71
2021/06/04 03:49:30;;;;;;;6.43;5.03;;;;;;;13.66;70.73;102914.31;6286103;28;20412;-71
2021/06/04 03:52:34;;;;;;;5.47;5.05;;;;;;;13.84;70.44;102915.88;6267588;28;20203;-71
2021/06/04 03:55:40;;;;;;;6.45;5.28;;;;;;;13.80;70.25;102910.75;6287335;28;20247;-72
2021/06/04 03:58:45;;;;;;;6.60;5.95;;;;;;;13.78;69.60;102912.84;6285906;28;20230;-72
2021/06/04 04:01:52;;;;;;;8.05;5.30;;;;;;;13.87;68.84;102908.09;6287306;28;20219;-72
2021/06/04 04:04:58;;;;;;;13.25;5.10;;;;;;;13.97;68.77;102905.09;6287376;28;20232;-72
2021/06/04 04:08:08;;;;;;;9.85;4.85;;;;;;;13.91;68.24;102911.31;6285763;28;20220;-71
2021/06/04 04:11:12;;;;;;;9.23;4.70;;;;;;;13.92;67.72;102907.53;6285795;28;20381;-72
2021/06/04 04:14:17;;;;;;;4.30;4.03;;;;;;;13.75;67.43;102913.22;6287135;28;20268;-72
2021/06/04 04:17:22;;;;;;;4.07;3.85;;;;;;;13.80;66.20;102905.25;6286758;28;20185;-72
2021/06/04 04:20:30;;;;;;;3.78;3.55;;;;;;;13.92;65.71;102904.81;6285680;28;20413;-72
2021/06/04 04:23:37;;;;;;;4.85;4.00;;;;;;;13.81;66.44;102923.41;6286094;28;20460;-73
2021/06/04 04:26:42;;;;;;;4.07;3.75;;;;;;;13.84;66.49;102915.88;6287050;28;20222;-72
2021/06/04 04:29:46;;;;;;;4.93;3.80;;;;;;;13.97;66.25;102916.06;6287159;28;20192;-72
2021/06/04 04:32:50;;;;;;;4.13;3.83;;;;;;;14.05;66.43;102919.53;6286463;28;20265;-73
2021/06/04 04:35:56;;;;;;;4.07;3.53;;;;;;;14.04;66.84;102900.53;6286476;28;20263;-72
2021/06/04 04:39:00;;;;;;;4.53;4.00;;;;;;;14.16;66.14;102909.97;6285420;28;20185;-73
2021/06/04 04:42:06;;;;;;;5.57;3.72;;;;;;;14.22;66.60;102906.47;6286543;28;20285;-72
2021/06/04 04:45:14;;;;;;;3.75;3.65;;;;;;;14.11;66.79;102899.59;6290872;28;20243;-72
2021/06/04 04:48:18;;;;;;;4.38;4.00;;;;;;;14.18;66.71;102914.25;6290975;28;20184;-73
2021/06/04 04:51:24;;;;;;;4.18;3.80;;;;;;;14.30;66.71;102911.88;6291280;28;20180;-72
2021/06/04 04:54:28;;;;;;;3.95;3.60;;;;;;;14.37;66.50;102901.84;6290741;28;20188;-72
2021/06/04 04:57:31;;;;;;;3.65;3.53;;;;;;;14.46;66.18;102900.69;6290650;28;20222;-72
2021/06/04 05:00:37;;;;;;;4.18;3.90;;;;;;;14.50;65.26;102907.50;6289464;28;20410;-72
2021/06/04 05:03:42;;;;;;;4.60;4.20;;;;;;;14.53;65.89;102906.28;6289176;28;20251;-72
2021/06/04 05:06:46;;;;;;;4.07;3.78;;;;;;;14.63;64.91;102896.69;6272672;28;20231;-72
2021/06/04 05:09:50;;;;;;;4.68;3.53;;;;;;;14.60;65.15;102896.19;6290525;28;20184;-72
2021/06/04 05:12:54;;;;;;;3.53;3.42;;;;;;;14.66;64.36;102895.44;6289245;28;20517;-72
2021/06/04 05:15:59;;;;;;;6.50;3.80;;;;;;;14.71;63.71;102902.06;6290159;28;20271;-71
2021/06/04 05:19:05;;;;;;;4.22;3.78;;;;;;;14.88;63.86;102900.75;6290290;28;20184;-72
2021/06/04 05:22:10;;;;;;;5.35;3.65;;;;;;;15.07;63.72;102883.59;6290060;28;20219;-72
2021/06/04 05:25:19;;;;;;;4.88;3.67;;;;;;;15.55;62.78;102892.06;6289568;28;20270;-72
2021/06/04 05:28:25;;;;;;;3.58;3.28;;;;;;;16.00;60.66;102897.00;6288705;28;20374;-72
2021/06/04 05:31:29;;;;;;;4.22;3.80;;;;;;;16.17;59.73;102887.38;6289166;28;20216;-72
2021/06/04 05:34:33;;;;;;;4.53;3.50;;;;;;;16.31;60.19;102876.41;6288477;28;20407;-71
2021/06/04 05:37:38;;;;;;;3.50;3.20;;;;;;;16.39;59.61;102884.47;6290031;28;20184;-73
2021/06/04 05:40:44;;;;;;;7.35;3.13;;;;;;;16.54;58.27;102893.47;6289329;28;20188;-72
2021/06/04 05:43:48;;;;;;;5.63;3.05;;;;;;;16.80;56.98;102882.50;6288357;28;20266;-73
2021/06/04 05:46:54;;;;;;;6.95;3.38;;;;;;;16.97;56.95;102889.34;6289536;28;20199;-72
2021/06/04 05:49:58;;;;;;;3.88;3.00;;;;;;;16.96;57.66;102893.16;6288981;28;20216;-72
2021/06/04 05:53:04;;;;;;;3.05;2.78;;;;;;;17.27;54.87;102896.16;6288074;28;20184;-71
2021/06/04 05:56:12;;;;;;;3.25;3.08;;;;;;;17.35;55.24;102884.06;6289049;28;20184;-72
2021/06/04 05:59:16;;;;;;;3.85;2.70;;;;;;;17.36;53.61;102886.59;6289026;28;20184;-73
2021/06/04 06:02:20;;;;;;;3.20;3.00;;;;;;;17.27;52.56;102884.28;6288166;28;20342;-72
2021/06/04 06:05:24;;;;;;;2.78;2.67;;;;;;;17.35;53.06;102882.16;6289135;28;20399;-72
2021/06/04 06:08:29;;;;;;;4.80;2.78;;;;;;;17.37;51.57;102879.19;6289072;28;20222;-72
2021/06/04 06:11:34;;;;;;;3.85;2.80;;;;;;;17.41;51.02;102883.22;6287804;28;20209;-72
2021/06/04 06:14:38;;;;;;;4.82;2.72;;;;;;;17.45;51.12;102878.97;6288238;28;20287;-71
2021/06/04 06:17:41;;;;;;;2.22;2.15;;;;;;;17.46;50.44;102895.28;6288795;28;20219;-72
2021/06/04 06:20:46;;;;;;;2.90;2.70;;;;;;;17.59;50.23;102893.66;6287852;28;20203;-72
2021/06/04 06:23:51;;;;;;;2.80;2.60;;;;;;;17.69;50.13;102883.00;6288824;28;20211;-72
2021/06/04 06:26:55;;;;;;;2.85;2.30;;;;;;;17.59;49.17;102888.13;6287222;28;20191;-72
2021/06/04 06:29:58;;;;;;;3.78;2.53;;;;;;;17.86;49.94;102890.63;6287121;28;20554;-73
2021/06/04 06:33:03;;;;;;;2.50;2.40;;;;;;;17.86;49.06;102896.13;6287891;28;20188;-72
2021/06/04 06:36:08;;;;;;;3.30;2.40;;;;;;;17.92;47.68;102895.25;6287105;28;20483;-72
2021/06/04 06:39:21;;;;;;;2.30;2.30;;;;;;;18.11;48.54;102899.88;6287494;28;20210;-72
2021/06/04 06:42:26;;;;;;;2.15;2.15;;;;;;;18.15;47.30;102897.56;6288188;28;20216;-71
2021/06/04 06:45:30;;;;;;;2.30;2.20;;;;;;;18.22;47.86;102887.31;6287689;28;20215;-72
2021/06/04 06:48:35;;;;;;;2.97;2.60;;;;;;;18.23;47.48;102891.78;6287713;28;20191;-72
2021/06/04 06:51:39;;;;;;;2.72;2.60;;;;;;;18.33;46.62;102886.66;6287163;28;20240;-72
2021/06/04 06:54:44;;;;;;;2.58;2.38;;;;;;;18.39;46.38;102891.28;6286377;28;20191;-72
2021/06/04 06:57:47;;;;;;;3.70;2.50;;;;;;;18.41;46.62;102894.66;6286229;28;20184;-72
2021/06/04 07:00:53;;;;;;;2.40;2.20;;;;;;;18.56;46.86;102887.00;6287389;28;20191;-72
2021/06/04 07:03:57;;;;;;;2.60;2.40;;;;;;;18.72;46.34;102886.44;6285994;28;20482;-72
2021/06/04 07:07:01;;;;;;;2.90;2.67;;;;;;;18.86;45.80;102892.75;6286695;28;20184;-74
2021/06/04 07:10:07;;;;;;;8.15;2.80;;;;;;;18.93;45.52;102876.97;6287890;28;20185;-73
2021/06/04 07:13:15;;;;;;;6.13;2.55;;;;;;;19.15;45.56;102874.69;6287484;28;20254;-73
2021/06/04 07:16:20;;;;;;;4.78;2.60;;;;;;;19.24;45.16;102868.63;6286434;28;20267;-73
2021/06/04 07:19:24;;;;;;;8.60;3.22;;;;;;;19.29;45.57;102881.78;6287275;28;20184;-74
2021/06/04 07:22:31;;;;;;;2.60;2.47;;;;;;;19.40;45.76;102866.41;6287446;28;20191;-73
2021/06/04 07:25:44;;;;;;;4.18;2.70;;;;;;;19.47;45.62;102879.09;6287333;28;20257;-73
2021/06/04 07:28:49;;;;;;;3.10;2.67;;;;;;;19.42;46.42;102876.19;6287161;28;20185;-73
2021/06/04 07:31:55;;;;;;;2.70;2.50;;;;;;;19.44;47.67;102876.78;6287422;28;20215;-73
2021/06/04 07:34:58;;;;;;;2.25;2.22;;;;;;;19.35;46.29;102872.59;6287425;28;20226;-73
2021/06/04 07:38:03;;;;;;;2.85;2.75;;;;;;;19.42;46.78;102870.63;6285883;28;20475;-73
2021/06/04 07:41:11;;;;;;;2.47;2.30;;;;;;;19.20;45.29;102866.56;6287328;28;20184;-74
2021/06/04 07:44:15;;;;;;;2.42;2.33;;;;;;;19.37;47.15;102873.25;6286731;28;20214;-73
2021/06/04 07:47:19;;;;;;;2.80;2.60;;;;;;;19.44;46.57;102862.94;6285568;28;20188;-73
2021/06/04 07:50:23;;;;;;;2.70;2.60;;;;;;;19.41;47.06;102857.91;6287720;28;20443;-73
2021/06/04 07:53:31;;;;;;;3.10;2.78;;;;;;;19.37;46.21;102876.00;6285525;28;20199;-73
2021/06/04 07:56:36;;;;;;;3.28;3.08;;;;;;;19.30;47.02;102872.44;6285511;28;20200;-73
2021/06/04 07:59:39;;;;;;;2.72;2.60;;;;;;;19.21;45.83;102873.75;6286456;28;20263;-73
2021/06/04 08:02:43;;;;;;;3.13;2.92;;;;;;;19.16;46.98;102855.06;6285124;28;20238;-73
2021/06/04 08:05:47;;;;;;;3.05;2.90;;;;;;;19.28;46.57;102874.59;6287659;28;20240;-73
2021/06/04 08:08:54;;;;;;;2.60;2.50;;;;;;;19.36;46.50;102864.06;6286605;28;20185;-73
2021/06/04 08:12:02;;;;;;;2.67;2.58;;;;;;;19.40;47.39;102860.88;6286863;28;20184;-73
2021/06/04 08:15:11;;;;;;;2.92;2.78;;;;;;;19.49;46.03;102860.34;6285951;28;20188;-73
2021/06/04 08:18:19;;;;;;;3.40;2.50;;;;;;;19.47;44.86;102851.44;6290406;28;20192;-73
2021/06/04 08:21:27;;;;;;;3.67;2.65;;;;;;;19.41;44.47;102857.91;6290291;28;20463;-73
2021/06/04 08:24:34;;;;;;;4.78;2.40;;;;;;;19.45;43.80;102853.59;6291471;28;20208;-73
2021/06/04 08:27:40;;;;;;;3.92;2.67;;;;;;;19.56;43.44;102855.63;6290165;28;20464;-73
2021/06/04 08:30:44;;;;;;;2.90;2.70;;;;;;;19.61;44.16;102846.63;6291088;28;20185;-73
2021/06/04 08:33:50;;;;;;;2.90;2.80;;;;;;;19.58;44.16;102847.91;6291263;28;20184;-73
2021/06/04 08:36:54;;;;;;;2.65;2.55;;;;;;;19.62;42.54;102843.59;6291335;28;20198;-73
2021/06/04 08:39:58;;;;;;;3.78;2.67;;;;;;;19.52;42.42;102848.81;6291251;28;20184;-73
2021/06/04 08:43:18;;;;;;;2.05;2.05;;;;;;;19.52;42.87;102837.75;6290741;28;20188;-72
2021/06/04 08:46:27;;;;;;;3.80;2.55;;;;;;;19.68;43.58;102853.78;6290970;28;20271;-73
2021/06/04 08:49:49;;;;;;;2.63;2.53;;;;;;;19.56;43.91;102850.06;6291009;28;20184;-72
2021/06/04 08:53:01;;;;;;;2.22;2.13;;;;;;;19.65;42.71;102843.16;6291285;28;20189;-72
2021/06/04 08:56:09;;;;;;;2.50;2.40;;;;;;;19.66;42.71;102853.16;6290109;28;20224;-73
2021/06/04 08:59:19;;;;;;;2.28;2.28;;;;;;;19.60;41.08;102848.53;6290166;28;20184;-71
2021/06/04 09:02:34;;;;;;;2.47;2.33;;;;;;;19.53;41.65;102850.53;6290472;28;20184;-72
2021/06/04 09:05:42;;;;;;;2.33;2.20;;;;;;;19.65;41.89;102845.91;6291182;28;20297;-72
2021/06/04 09:08:46;;;;;;;3.13;2.92;;;;;;;19.33;39.81;102838.78;6271708;28;20485;-72
2021/06/04 09:11:53;;;;;;;3.08;2.38;;;;;;;19.39;40.98;102835.09;6290493;28;20226;-74
2021/06/04 09:14:58;;;;;;;2.95;2.63;;;;;;;19.37;40.73;102834.50;6290428;28;20207;-72
2021/06/04 09:18:07;;;;;;;2.50;2.40;;;;;;;19.35;41.33;102843.00;6289090;28;20185;-72
2021/06/04 09:21:15;;;;;;;2.63;2.42;;;;;;;19.39;40.65;102835.09;6290140;28;20184;-72
2021/06/04 09:24:26;;;;;;;2.60;2.58;;;;;;;19.40;41.51;102839.56;6289909;28;20280;-71
2021/06/04 09:27:34;;;;;;;4.05;2.60;;;;;;;19.36;41.28;102827.25;6289726;28;20216;-72
2021/06/04 09:30:41;;;;;;;6.90;2.50;;;;;;;19.31;41.76;102818.78;6288810;28;20185;-72
2021/06/04 09:33:49;;;;;;;4.25;2.50;;;;;;;19.36;42.05;102822.53;6289685;28;20251;-73
2021/06/04 09:36:55;;;;;;;10.73;2.80;;;;;;;19.34;41.99;102821.06;6288278;28;20203;-73
2021/06/04 09:40:18;;;;;;;9.07;3.13;;;;;;;19.32;42.37;102809.38;6289590;28;20216;-73
2021/06/04 09:43:30;;;;;;;4.07;2.70;;;;;;;19.40;42.42;102811.91;6288514;28;20475;-73
2021/06/04 09:46:39;;;;;;;2.83;2.60;;;;;;;19.39;42.10;102804.66;6289408;28;20285;-73
2021/06/04 09:49:48;;;;;;;4.47;2.50;;;;;;;19.46;42.90;102807.38;6288451;28;20211;-73
2021/06/04 09:53:06;;;;;;;2.50;2.45;;;;;;;19.45;42.22;102809.28;6288139;28;20542;-73
2021/06/04 09:56:17;;;;;;;2.65;2.55;;;;;;;19.43;41.86;102805.91;6288109;28;20484;-73
2021/06/04 09:59:23;;;;;;;2.78;2.17;;;;;;;19.44;41.61;102802.03;6288511;28;20257;-73
2021/06/04 10:02:33;;;;;;;2.63;2.50;;;;;;;19.45;41.54;102803.75;6288563;28;20191;-73
2021/06/04 10:05:38;;;;;;;3.70;2.50;;;;;;;19.45;41.57;102792.69;6287861;28;20243;-73
2021/06/04 10:08:45;;;;;;;2.67;2.28;;;;;;;19.42;40.50;102798.66;6289148;28;20184;-73
2021/06/04 10:11:54;;;;;;;2.72;2.50;;;;;;;19.52;40.74;102793.44;6287704;28;20475;-73
2021/06/04 10:15:00;;;;;;;6.47;2.38;;;;;;;19.59;40.43;102788.72;6287679;28;20398;-73
2021/06/04 10:18:31;;;;;;;2.95;2.38;;;;;;;19.51;40.12;102791.78;6287547;28;20432;-73
2021/06/04 10:21:39;;;;;;;2.25;2.20;;;;;;;19.59;40.21;102782.31;6287584;28;20252;-73
2021/06/04 10:24:46;;;;;;;2.72;2.40;;;;;;;19.63;40.27;102789.06;6287467;28;20532;-73
2021/06/04 10:27:52;;;;;;;2.65;2.55;;;;;;;19.62;40.41;102788.22;6288526;28;20188;-73
2021/06/04 10:31:01;;;;;;;2.40;2.30;;;;;;;19.49;40.27;102777.28;6288286;28;20230;-72
2021/06/04 10:34:27;;;;;;;2.53;2.40;;;;;;;19.64;40.61;102786.09;6288344;28;20184;-73
2021/06/04 10:37:37;;;;;;;2.60;2.40;;;;;;;19.70;40.78;102785.16;6286952;28;20220;-73
2021/06/04 10:40:45;;;;;;;2.45;2.35;;;;;;;19.80;40.73;102773.53;6287918;28;20247;-73
2021/06/04 10:44:02;;;;;;;2.78;2.40;;;;;;;19.81;41.34;102769.69;6287466;28;20230;-73
2021/06/04 10:47:14;;;;;;;2.75;2.55;;;;;;;19.94;40.35;102769.53;6286663;28;20411;-73
2021/06/04 10:50:23;;;;;;;2.30;2.30;;;;;;;19.96;40.95;102768.22;6268747;28;20200;-73
2021/06/04 10:53:37;;;;;;;2.58;2.47;;;;;;;19.96;40.23;102773.75;6287811;28;20185;-73
2021/06/04 10:56:47;;;;;;;2.13;2.13;;;;;;;19.99;39.90;102745.59;6287400;28;20211;-73
2021/06/04 10:59:56;;;;;;;11.05;2.97;;;;;;;20.31;39.67;102765.63;6286974;28;20266;-73
2021/06/04 11:03:09;;;;;;;2.28;2.28;;;;;;;20.38;39.54;102768.31;6286089;28;20208;-73
2021/06/04 11:06:20;;;;;;;5.55;2.38;;;;;;;20.31;40.24;102759.25;6285938;28;20400;-73
2021/06/04 11:09:31;;;;;;;2.55;2.55;;;;;;;20.38;39.67;102765.53;6286180;28;20191;-73
2021/06/04 11:12:56;;;;;;;3.70;2.67;;;;;;;20.38;39.22;102748.91;6269132;28;20206;-73
2021/06/04 11:16:03;;;;;;;2.50;2.40;;;;;;;20.37;39.42;102752.75;6287040;28;20189;-72
2021/06/04 11:19:15;;;;;;;2.28;2.10;;;;;;;20.32;37.95;102747.06;6286917;28;20216;-73
2021/06/04 11:22:24;;;;;;;2.13;2.13;;;;;;;20.44;38.81;102753.50;6286026;28;20195;-73
2021/06/04 11:25:35;;;;;;;3.50;2.10;;;;;;;20.43;38.35;102751.81;6287075;28;20230;-73
2021/06/04 11:28:44;;;;;;;2.25;2.10;;;;;;;20.48;38.29;102743.63;6285729;28;20184;-72
2021/06/04 11:31:54;;;;;;;2.28;1.92;;;;;;;20.49;37.00;102728.69;6285835;28;20351;-73
2021/06/04 11:35:04;;;;;;;2.13;2.10;;;;;;;20.56;37.41;102734.97;6286754;28;20215;-73
2021/06/04 11:38:15;;;;;;;1.95;1.95;;;;;;;20.68;35.92;102733.06;6285912;28;20385;-73
2021/06/04 11:41:24;;;;;;;3.05;2.00;;;;;;;20.63;36.80;102724.59;6285605;28;20196;-73
2021/06/04 11:44:31;;;;;;;2.22;2.13;;;;;;;20.86;37.45;102724.63;6286315;28;20188;-73
2021/06/04 11:47:38;;;;;;;2.13;2.08;;;;;;;20.91;36.86;102721.97;6286098;28;20208;-73
2021/06/04 11:50:42;;;;;;;2.10;2.10;;;;;;;21.00;36.47;102720.56;6286575;28;20188;-73
2021/06/04 11:53:49;;;;;;;2.40;2.10;;;;;;;21.13;36.38;102713.94;6291332;28;20199;-73
2021/06/04 11:56:58;;;;;;;2.17;2.15;;;;;;;21.03;36.40;102717.28;6291670;28;20220;-72
2021/06/04 12:00:22;;;;;;;2.25;2.15;;;;;;;21.01;36.83;102708.34;6291426;28;20199;-73
2021/06/04 12:03:44;;;;;;;3.05;1.80;;;;;;;21.10;36.59;102715.28;6290377;28;20281;-73
2021/06/04 12:06:58;;;;;;;1.83;1.83;;;;;;;21.18;37.28;102723.22;6291271;28;20250;-73
2021/06/04 12:10:05;;;;;;;2.78;2.50;;;;;;;21.08;37.28;102709.09;6290481;28;20455;-72
2021/06/04 12:13:30;;;;;;;2.30;2.20;;;;;;;21.27;37.21;102708.97;6291265;28;20185;-72
2021/06/04 12:16:36;;;;;;;2.30;2.30;;;;;;;21.29;37.22;102704.84;6291188;28;20227;-72
2021/06/04 12:19:40;;;;;;;2.20;2.20;;;;;;;21.39;35.85;102705.09;6273430;28;20231;-73
2021/06/04 12:22:48;;;;;;;3.13;2.08;;;;;;;21.47;35.49;102706.66;6290065;28;20206;-73
2021/06/04 12:26:02;;;;;;;2.55;2.38;;;;;;;21.49;36.47;102691.44;6290030;28;20558;-72
2021/06/04 12:29:37;;;;;;;2.47;2.33;;;;;;;21.64;35.96;102710.34;6291124;28;20185;-73
2021/06/04 12:33:02;;;;;;;3.70;2.92;;;;;;;21.38;35.63;102713.66;6291291;28;20184;-71
2021/06/04 12:36:55;;;;;;;3.33;2.15;;;;;;;21.31;35.88;102710.19;6290535;28;20233;-72
2021/06/04 12:40:27;;;;;;;3.83;2.45;;;;;;;21.33;36.49;102706.06;6290213;28;20184;-73
2021/06/04 12:43:34;;;;;;;2.15;2.15;;;;;;;21.40;36.63;102705.94;6290718;28;20255;-72
2021/06/04 12:46:38;;;;;;;2.47;2.28;;;;;;;21.51;35.30;102705.91;6290955;28;20243;-73
2021/06/04 12:49:42;;;;;;;4.15;2.38;;;;;;;21.50;35.18;102703.38;6290696;28;20220;-72
2021/06/04 12:52:46;;;;;;;2.75;2.30;;;;;;;21.39;35.86;102704.25;6290303;28;20184;-72
2021/06/04 12:55:52;;;;;;;2.50;2.28;;;;;;;21.46;37.13;102679.97;6290285;28;20215;-72
2021/06/04 12:59:11;;;;;;;2.10;1.98;;;;;;;21.81;35.34;102683.47;6290540;28;20185;-73
2021/06/04 13:02:17;;;;;;;9.57;2.72;;;;;;;21.97;34.94;102679.94;6290755;28;20191;-73
2021/06/04 13:05:23;;;;;;;2.88;2.53;;;;;;;22.03;35.36;102676.19;6287884;28;20530;-74
2021/06/04 13:08:33;;;;;;;4.07;2.67;;;;;;;22.12;35.59;102669.09;6289054;28;20452;-73
2021/06/04 13:11:42;;;;;;;2.30;2.30;;;;;;;22.10;34.55;102670.47;6290160;28;20192;-72
2021/06/04 13:14:49;;;;;;;2.25;2.22;;;;;;;22.08;34.82;102667.94;6288980;28;20420;-73
2021/06/04 13:17:56;;;;;;;2.45;2.30;;;;;;;21.96;34.59;102667.13;6289623;28;20230;-73
2021/06/04 13:21:14;;;;;;;2.35;2.13;;;;;;;21.99;34.07;102663.84;6289717;28;20185;-73
2021/06/04 13:24:28;;;;;;;1.92;1.83;;;;;;;22.24;34.97;102666.25;6289977;28;20303;-72
2021/06/04 13:27:34;;;;;;;2.60;2.50;;;;;;;22.45;34.20;102652.47;6288468;28;20539;-72
2021/06/04 13:30:42;;;;;;;2.80;2.60;;;;;;;22.29;34.04;102644.94;6288194;28;20436;-72
2021/06/04 13:33:52;;;;;;;2.50;2.50;;;;;;;22.37;35.39;102644.53;6289673;28;20192;-72
2021/06/04 13:36:59;;;;;;;2.65;2.50;;;;;;;22.38;34.74;102643.44;6289652;28;20223;-72
2021/06/04 13:40:05;;;;;;;2.47;2.40;;;;;;;22.62;33.82;102651.63;6288601;28;20184;-73
2021/06/04 13:46:58;;;;;;;2.58;2.50;;;;;;;24.82;30.57;102647.06;6288047;28;20524;-72
2021/06/04 13:50:16;;;;;;;2.60;2.60;;;;;;;26.04;28.22;102621.28;6289161;28;20251;-73
2021/06/04 13:53:34;;;;;;;3.00;2.28;;;;;;;27.11;26.86;102636.94;6287928;28;20185;-72
2021/06/04 13:56:41;;;;;;;8.07;2.67;;;;;;;26.30;28.67;102626.94;6287907;28;20385;-72
2021/06/04 13:59:45;;;;;;;51.28;39.47;;;;;;;25.61;29.81;102630.16;6288939;28;20234;-73
2021/06/04 14:03:06;;;;;;;2.45;2.42;;;;;;;26.18;29.57;102623.56;6287624;28;20560;-73
2021/06/04 14:06:20;;;;;;;3.00;2.15;;;;;;;26.83;28.18;102620.78;6287646;28;20184;-72
2021/06/04 14:09:31;;;;;;;4.00;2.63;;;;;;;27.24;28.03;102616.75;6288973;28;20216;-72
2021/06/04 14:12:35;;;;;;;2.55;2.47;;;;;;;26.67;28.00;102613.50;6287408;28;20247;-72
2021/06/04 14:16:00;;;;;;;3.50;2.30;;;;;;;25.25;28.95;102608.72;6288104;28;20254;-72
2021/06/04 14:19:07;;;;;;;3.35;2.40;;;;;;;24.47;30.82;102604.91;6287327;28;20226;-73
2021/06/04 14:22:33;;;;;;;2.80;2.60;;;;;;;24.40;30.78;102621.00;6287355;28;20216;-72
2021/06/04 14:25:37;;;;;;;3.03;2.92;;;;;;;24.33;30.98;102609.25;6288291;28;20247;-72
2021/06/04 14:28:40;;;;;;;2.42;2.03;;;;;;;24.35;31.38;102612.59;6287888;28;20347;-72
2021/06/04 14:31:49;;;;;;;2.50;2.30;;;;;;;24.15;31.86;102606.84;6288015;28;20254;-73
2021/06/04 14:35:32;;;;;;;4.85;2.40;;;;;;;24.27;30.97;102604.72;6288159;28;20189;-72
2021/06/04 14:38:40;;;;;;;2.97;2.70;;;;;;;23.82;30.90;102605.09;6256993;28;20211;-72
2021/06/04 14:41:43;;;;;;;2.35;2.35;;;;;;;23.77;31.72;102598.63;6288065;28;20184;-72